createdAt,value
2018-07-08T00:00:52.041Z,22.88
2018-07-08T00:01:51.956Z,22.87
2018-07-08T00:02:52.074Z,22.88
2018-07-08T00:03:51.921Z,22.87
2018-07-08T00:04:51.997Z,22.88
2018-07-08T00:05:52.057Z,22.88
2018-07-08T00:06:53.893Z,22.87
2018-07-08T00:07:52.023Z,22.88
2018-07-08T00:08:52.098Z,22.88
2018-07-08T00:09:51.948Z,22.88
2018-07-08T00:10:51.928Z,22.87
2018-07-08T00:11:52.101Z,22.88
2018-07-08T00:12:52.044Z,22.87
2018-07-08T00:13:52.050Z,22.87
2018-07-08T00:14:52.090Z,22.87
2018-07-08T00:15:52.074Z,22.87
2018-07-08T00:16:51.991Z,22.86
2018-07-08T00:17:52.018Z,22.87
2018-07-08T00:18:51.993Z,22.87
2018-07-08T00:19:51.965Z,22.87
2018-07-08T00:20:52.036Z,22.86
2018-07-08T00:21:54.482Z,22.87
2018-07-08T00:22:51.988Z,22.87
2018-07-08T00:23:52.020Z,22.87
2018-07-08T00:24:51.961Z,22.87
2018-07-08T00:25:52.001Z,22.87
2018-07-08T00:26:51.999Z,22.87
2018-07-08T00:27:52.075Z,22.86
2018-07-08T00:28:52.379Z,22.86
2018-07-08T00:29:52.054Z,22.86
2018-07-08T00:30:51.941Z,22.87
2018-07-08T00:31:52.036Z,22.86
2018-07-08T00:32:51.941Z,22.86
2018-07-08T00:33:52.105Z,22.86
2018-07-08T00:34:52.088Z,22.86
2018-07-08T00:35:52.026Z,22.87
2018-07-08T00:36:51.946Z,22.86
2018-07-08T00:37:54.279Z,22.86
2018-07-08T00:38:52.102Z,22.86
2018-07-08T00:39:52.108Z,22.86
2018-07-08T00:40:51.966Z,22.86
2018-07-08T00:41:52.101Z,22.86
2018-07-08T00:42:51.981Z,22.86
2018-07-08T00:43:52.065Z,22.86
2018-07-08T00:44:54.318Z,22.85
2018-07-08T00:45:52.007Z,22.86
2018-07-08T00:46:52.053Z,22.86
2018-07-08T00:47:52.113Z,22.85
2018-07-08T00:48:52.056Z,22.85
2018-07-08T00:49:52.029Z,22.85
2018-07-08T00:50:52.074Z,22.87
2018-07-08T00:51:52.009Z,22.86
2018-07-08T00:52:52.097Z,22.84
2018-07-08T00:53:51.991Z,22.86
2018-07-08T00:54:51.677Z,22.86
2018-07-08T00:55:54.610Z,22.85
2018-07-08T00:56:51.947Z,22.85
2018-07-08T00:57:52.003Z,22.84
2018-07-08T00:58:52.021Z,22.85
2018-07-08T00:59:51.959Z,22.85
2018-07-08T01:00:52.089Z,22.85
2018-07-08T01:01:52.087Z,22.86
2018-07-08T01:02:54.350Z,22.85
2018-07-08T01:03:51.974Z,22.85
2018-07-08T01:04:54.378Z,22.85
2018-07-08T01:05:51.987Z,22.85
2018-07-08T01:06:53.970Z,22.85
2018-07-08T01:07:52.345Z,22.85
2018-07-08T01:08:52.037Z,22.85
2018-07-08T01:09:52.037Z,22.85
2018-07-08T01:10:51.968Z,22.85
2018-07-08T01:11:52.003Z,22.85
2018-07-08T01:12:51.977Z,22.84
2018-07-08T01:13:52.027Z,22.84
2018-07-08T01:14:52.117Z,22.84
2018-07-08T01:15:52.128Z,22.84
2018-07-08T01:16:52.038Z,22.85
2018-07-08T01:17:54.621Z,22.85
2018-07-08T01:18:51.963Z,22.84
2018-07-08T01:19:51.988Z,22.85
2018-07-08T01:20:51.985Z,22.84
2018-07-08T01:21:51.969Z,22.84
2018-07-08T01:22:51.988Z,22.84
2018-07-08T01:23:52.000Z,22.83
2018-07-08T01:24:54.789Z,22.83
2018-07-08T01:25:52.024Z,22.83
2018-07-08T01:26:53.938Z,22.84
2018-07-08T01:27:52.036Z,22.83
2018-07-08T01:28:52.050Z,22.84
2018-07-08T01:29:52.008Z,22.83
2018-07-08T01:30:52.032Z,22.83
2018-07-08T01:31:52.140Z,22.84
2018-07-08T01:32:52.049Z,22.84
2018-07-08T01:33:52.129Z,22.84
2018-07-08T01:34:52.019Z,22.84
2018-07-08T01:35:52.016Z,22.84
2018-07-08T01:36:51.992Z,22.83
2018-07-08T01:37:52.016Z,22.84
2018-07-08T01:38:52.085Z,22.83
2018-07-08T01:39:52.046Z,22.83
2018-07-08T01:40:52.064Z,22.84
2018-07-08T01:41:54.233Z,22.83
2018-07-08T01:42:54.348Z,22.83
2018-07-08T01:43:52.117Z,22.84
2018-07-08T01:44:52.026Z,22.82
2018-07-08T01:45:52.000Z,22.83
2018-07-08T01:46:54.258Z,22.83
2018-07-08T01:47:52.041Z,22.84
2018-07-08T01:48:51.990Z,22.83
2018-07-08T01:49:52.142Z,22.83
2018-07-08T01:50:52.163Z,22.82
2018-07-08T01:51:52.001Z,22.83
2018-07-08T01:52:52.058Z,22.83
2018-07-08T01:53:52.107Z,22.83
2018-07-08T01:54:52.001Z,22.82
2018-07-08T01:55:52.090Z,22.82
2018-07-08T01:56:52.163Z,22.82
2018-07-08T01:57:52.100Z,22.82
2018-07-08T01:58:52.090Z,22.82
2018-07-08T01:59:52.144Z,22.83
2018-07-08T02:00:52.015Z,22.82
2018-07-08T02:01:51.728Z,22.82
2018-07-08T02:02:52.031Z,22.82
2018-07-08T02:03:52.076Z,22.83
2018-07-08T02:04:52.146Z,22.82
2018-07-08T02:05:54.802Z,22.81
2018-07-08T02:06:52.154Z,22.82
2018-07-08T02:07:51.777Z,22.83
2018-07-08T02:08:52.167Z,22.82
2018-07-08T02:09:52.021Z,22.82
2018-07-08T02:10:54.320Z,22.82
2018-07-08T02:11:54.837Z,22.82
2018-07-08T02:12:52.030Z,22.82
2018-07-08T02:13:54.941Z,22.81
2018-07-08T02:14:52.027Z,22.81
2018-07-08T02:15:52.017Z,22.81
2018-07-08T02:16:52.076Z,22.81
2018-07-08T02:17:52.100Z,22.82
2018-07-08T02:18:51.799Z,22.82
2018-07-08T02:19:52.107Z,22.81
2018-07-08T02:20:52.064Z,22.81
2018-07-08T02:22:01.903Z,22.82
2018-07-08T02:22:52.029Z,22.81
2018-07-08T02:23:52.099Z,22.81
2018-07-08T02:24:52.089Z,22.81
2018-07-08T02:25:52.066Z,22.82
2018-07-08T02:26:51.790Z,22.81
2018-07-08T02:27:52.140Z,22.81
2018-07-08T02:28:52.116Z,22.82
2018-07-08T02:29:52.033Z,22.81
2018-07-08T02:30:51.726Z,22.8
2018-07-08T02:31:52.031Z,22.82
2018-07-08T02:32:52.106Z,22.81
2018-07-08T02:33:52.042Z,22.81
2018-07-08T02:34:51.660Z,22.81
2018-07-08T02:35:52.163Z,22.81
2018-07-08T02:36:52.138Z,22.8
2018-07-08T02:37:52.169Z,22.81
2018-07-08T02:38:51.749Z,22.81
2018-07-08T02:39:51.740Z,22.8
2018-07-08T02:40:52.030Z,22.81
2018-07-08T02:41:52.047Z,22.81
2018-07-08T02:42:52.164Z,22.81
2018-07-08T02:43:52.089Z,22.81
2018-07-08T02:44:52.053Z,22.8
2018-07-08T02:45:52.089Z,22.8
2018-07-08T02:46:52.135Z,22.8
2018-07-08T02:47:51.768Z,22.8
2018-07-08T02:48:51.683Z,22.8
2018-07-08T02:49:52.090Z,22.8
2018-07-08T02:50:52.079Z,22.8
2018-07-08T02:51:53.742Z,22.79
2018-07-08T02:52:52.065Z,22.8
2018-07-08T02:53:52.204Z,22.8
2018-07-08T02:54:52.201Z,22.79
2018-07-08T02:55:51.763Z,22.8
2018-07-08T02:56:52.129Z,22.8
2018-07-08T02:57:52.052Z,22.79
2018-07-08T02:58:51.773Z,22.8
2018-07-08T02:59:52.217Z,22.8
2018-07-08T03:00:52.125Z,22.79
2018-07-08T03:01:52.058Z,22.8
2018-07-08T03:02:52.189Z,22.79
2018-07-08T03:03:51.741Z,22.79
2018-07-08T03:04:52.087Z,22.8
2018-07-08T03:05:52.200Z,22.79
2018-07-08T03:06:51.613Z,22.8
2018-07-08T03:07:51.727Z,22.79
2018-07-08T03:08:52.105Z,22.8
2018-07-08T03:09:51.728Z,22.79
2018-07-08T03:10:52.110Z,22.8
2018-07-08T03:11:52.057Z,22.79
2018-07-08T03:12:52.441Z,22.79
2018-07-08T03:13:52.098Z,22.79
2018-07-08T03:14:51.700Z,22.8
2018-07-08T03:15:51.728Z,22.79
2018-07-08T03:16:52.131Z,22.79
2018-07-08T03:17:51.703Z,22.79
2018-07-08T03:18:52.149Z,22.79
2018-07-08T03:19:52.436Z,22.79
2018-07-08T03:20:51.687Z,22.79
2018-07-08T03:21:52.064Z,22.78
2018-07-08T03:22:52.109Z,22.79
2018-07-08T03:23:52.140Z,22.79
2018-07-08T03:24:51.831Z,22.78
2018-07-08T03:25:52.121Z,22.79
2018-07-08T03:27:01.744Z,22.79
2018-07-08T03:27:52.217Z,22.78
2018-07-08T03:28:52.171Z,22.79
2018-07-08T03:29:51.785Z,22.78
2018-07-08T03:30:52.067Z,22.78
2018-07-08T03:31:51.766Z,22.78
2018-07-08T03:32:52.166Z,22.79
2018-07-08T03:33:52.206Z,22.77
2018-07-08T03:34:52.088Z,22.79
2018-07-08T03:35:51.725Z,22.78
2018-07-08T03:36:52.106Z,22.78
2018-07-08T03:37:51.807Z,22.77
2018-07-08T03:38:51.841Z,22.78
2018-07-08T03:39:52.144Z,22.78
2018-07-08T03:40:52.163Z,22.77
2018-07-08T03:41:52.107Z,22.78
2018-07-08T03:42:52.171Z,22.78
2018-07-08T03:43:54.688Z,22.78
2018-07-08T03:44:52.142Z,22.78
2018-07-08T03:45:52.164Z,22.78
2018-07-08T03:46:52.151Z,22.78
2018-07-08T03:47:52.102Z,22.78
2018-07-08T03:48:52.140Z,22.77
2018-07-08T03:49:52.132Z,22.77
2018-07-08T03:50:52.161Z,22.78
2018-07-08T03:51:51.818Z,22.77
2018-07-08T03:52:52.152Z,22.77
2018-07-08T03:53:51.743Z,22.78
2018-07-08T03:54:52.157Z,22.77
2018-07-08T03:55:51.734Z,22.77
2018-07-08T03:56:51.677Z,22.78
2018-07-08T03:57:51.738Z,22.76
2018-07-08T03:58:52.098Z,22.77
2018-07-08T03:59:51.780Z,22.77
2018-07-08T04:00:51.768Z,22.77
2018-07-08T04:01:54.660Z,22.77
2018-07-08T04:02:51.736Z,22.77
2018-07-08T04:03:51.797Z,22.77
2018-07-08T04:04:51.822Z,22.76
2018-07-08T04:05:52.201Z,22.77
2018-07-08T04:06:52.197Z,22.76
2018-07-08T04:07:51.866Z,22.76
2018-07-08T04:08:52.160Z,22.77
2018-07-08T04:09:52.270Z,22.76
2018-07-08T04:10:51.782Z,22.76
2018-07-08T04:11:51.567Z,22.77
2018-07-08T04:12:51.746Z,22.76
2018-07-08T04:13:52.193Z,22.77
2018-07-08T04:14:51.832Z,22.76
2018-07-08T04:15:52.182Z,22.76
2018-07-08T04:16:51.827Z,22.76
2018-07-08T04:17:52.185Z,22.76
2018-07-08T04:18:51.817Z,22.76
2018-07-08T04:19:52.205Z,22.76
2018-07-08T04:20:51.752Z,22.76
2018-07-08T04:21:51.827Z,22.76
2018-07-08T04:22:51.835Z,22.76
2018-07-08T04:23:51.808Z,22.76
2018-07-08T04:24:52.179Z,22.76
2018-07-08T04:25:51.776Z,22.75
2018-07-08T04:26:52.205Z,22.77
2018-07-08T04:27:51.788Z,22.76
2018-07-08T04:28:54.590Z,22.76
2018-07-08T04:29:51.653Z,22.76
2018-07-08T04:30:51.763Z,22.75
2018-07-08T04:31:51.838Z,22.76
2018-07-08T04:32:52.144Z,22.75
2018-07-08T04:33:52.191Z,22.75
2018-07-08T04:34:52.148Z,22.76
2018-07-08T04:35:52.274Z,22.75
2018-07-08T04:36:52.146Z,22.75
2018-07-08T04:37:51.736Z,22.75
2018-07-08T04:38:51.684Z,22.75
2018-07-08T04:39:51.738Z,22.75
2018-07-08T04:40:51.903Z,22.75
2018-07-08T04:41:51.832Z,22.75
2018-07-08T04:42:51.853Z,22.75
2018-07-08T04:43:52.160Z,22.76
2018-07-08T04:44:51.712Z,22.75
2018-07-08T04:45:51.737Z,22.75
2018-07-08T04:46:51.856Z,22.75
2018-07-08T04:47:51.716Z,22.76
2018-07-08T04:48:52.154Z,22.75
2018-07-08T04:49:51.777Z,22.75
2018-07-08T04:50:51.770Z,22.76
2018-07-08T04:51:51.773Z,22.75
2018-07-08T04:52:51.789Z,22.75
2018-07-08T04:53:51.854Z,22.74
2018-07-08T04:54:51.700Z,22.75
2018-07-08T04:55:51.791Z,22.75
2018-07-08T04:56:52.174Z,22.75
2018-07-08T04:57:51.741Z,22.76
2018-07-08T04:58:51.698Z,22.75
2018-07-08T04:59:51.706Z,22.75
2018-07-08T05:00:51.784Z,22.75
2018-07-08T05:01:51.720Z,22.74
2018-07-08T05:02:51.916Z,22.75
2018-07-08T05:03:51.868Z,22.75
2018-07-08T05:04:54.617Z,22.75
2018-07-08T05:05:51.790Z,22.75
2018-07-08T05:06:52.160Z,22.74
2018-07-08T05:07:51.695Z,22.75
2018-07-08T05:08:52.253Z,22.75
2018-07-08T05:09:51.651Z,22.74
2018-07-08T05:10:51.873Z,22.75
2018-07-08T05:11:51.805Z,22.75
2018-07-08T05:12:51.741Z,22.74
2018-07-08T05:13:52.148Z,22.75
2018-07-08T05:14:51.748Z,22.74
2018-07-08T05:15:51.931Z,22.75
2018-07-08T05:16:51.708Z,22.75
2018-07-08T05:17:52.203Z,22.75
2018-07-08T05:18:51.760Z,22.75
2018-07-08T05:19:51.754Z,22.75
2018-07-08T05:20:51.872Z,22.74
2018-07-08T05:21:51.813Z,22.74
2018-07-08T05:22:52.286Z,22.74
2018-07-08T05:23:52.215Z,22.75
2018-07-08T05:24:51.672Z,22.74
2018-07-08T05:25:51.684Z,22.74
2018-07-08T05:26:51.740Z,22.75
2018-07-08T05:27:54.324Z,22.75
2018-07-08T05:28:52.305Z,22.74
2018-07-08T05:29:51.719Z,22.75
2018-07-08T05:30:52.250Z,22.75
2018-07-08T05:31:51.938Z,22.75
2018-07-08T05:32:51.813Z,22.75
2018-07-08T05:33:52.208Z,22.74
2018-07-08T05:34:51.824Z,22.75
2018-07-08T05:35:52.198Z,22.74
2018-07-08T05:37:01.772Z,22.74
2018-07-08T05:37:51.752Z,22.74
2018-07-08T05:38:51.814Z,22.74
2018-07-08T05:39:51.939Z,22.74
2018-07-08T05:40:51.871Z,22.74
2018-07-08T05:41:51.827Z,22.74
2018-07-08T05:42:51.879Z,22.75
2018-07-08T05:43:51.780Z,22.75
2018-07-08T05:44:51.701Z,22.75
2018-07-08T05:45:51.576Z,22.74
2018-07-08T05:46:51.796Z,22.74
2018-07-08T05:47:51.754Z,22.74
2018-07-08T05:48:51.707Z,22.74
2018-07-08T05:49:51.760Z,22.75
2018-07-08T05:50:51.776Z,22.75
2018-07-08T05:51:51.704Z,22.74
2018-07-08T05:52:51.781Z,22.75
2018-07-08T05:53:51.881Z,22.75
2018-07-08T05:54:51.688Z,22.75
2018-07-08T05:55:51.692Z,22.75
2018-07-08T05:56:51.795Z,22.75
2018-07-08T05:57:51.839Z,22.74
2018-07-08T05:58:51.757Z,22.74
2018-07-08T05:59:51.703Z,22.74
2018-07-08T06:00:51.911Z,22.76
2018-07-08T06:01:51.750Z,22.75
2018-07-08T06:02:51.786Z,22.74
2018-07-08T06:03:51.682Z,22.74
2018-07-08T06:04:51.721Z,22.75
2018-07-08T06:05:51.694Z,22.75
2018-07-08T06:06:51.742Z,22.75
2018-07-08T06:07:51.852Z,22.75
2018-07-08T06:08:54.846Z,22.74
2018-07-08T06:09:51.751Z,22.75
2018-07-08T06:10:51.757Z,22.74
2018-07-08T06:11:51.978Z,22.73
2018-07-08T06:12:51.663Z,22.74
2018-07-08T06:13:51.765Z,22.74
2018-07-08T06:14:51.797Z,22.74
2018-07-08T06:15:51.894Z,22.74
2018-07-08T06:16:51.848Z,22.74
2018-07-08T06:17:52.200Z,22.74
2018-07-08T06:18:51.713Z,22.74
2018-07-08T06:19:51.775Z,22.75
2018-07-08T06:20:51.835Z,22.74
2018-07-08T06:21:51.864Z,22.74
2018-07-08T06:22:51.926Z,22.74
2018-07-08T06:23:51.811Z,22.74
2018-07-08T06:24:51.789Z,22.74
2018-07-08T06:25:51.968Z,22.74
2018-07-08T06:26:51.809Z,22.75
2018-07-08T06:27:51.889Z,22.75
2018-07-08T06:28:51.882Z,22.74
2018-07-08T06:29:51.803Z,22.74
2018-07-08T06:30:51.714Z,22.74
2018-07-08T06:31:51.946Z,22.74
2018-07-08T06:32:51.713Z,22.74
2018-07-08T06:33:51.697Z,22.74
2018-07-08T06:34:51.679Z,22.74
2018-07-08T06:35:51.795Z,22.74
2018-07-08T06:36:51.910Z,22.74
2018-07-08T06:37:51.986Z,22.74
2018-07-08T06:38:52.297Z,22.74
2018-07-08T06:39:51.661Z,22.75
2018-07-08T06:40:51.801Z,22.74
2018-07-08T06:41:51.762Z,22.73
2018-07-08T06:42:51.808Z,22.74
2018-07-08T06:43:51.695Z,22.74
2018-07-08T06:44:51.765Z,22.74
2018-07-08T06:45:51.677Z,22.74
2018-07-08T06:46:51.835Z,22.74
2018-07-08T06:47:51.874Z,22.74
2018-07-08T06:48:51.722Z,22.74
2018-07-08T06:49:53.746Z,22.74
2018-07-08T06:50:51.638Z,22.74
2018-07-08T06:51:51.961Z,22.74
2018-07-08T06:52:54.784Z,22.74
2018-07-08T06:53:51.827Z,22.74
2018-07-08T06:54:51.871Z,22.73
2018-07-08T06:55:51.762Z,22.74
2018-07-08T06:56:51.895Z,22.74
2018-07-08T06:57:51.737Z,22.74
2018-07-08T06:58:51.852Z,22.73
2018-07-08T06:59:51.825Z,22.74
2018-07-08T07:00:51.723Z,22.73
2018-07-08T07:01:51.765Z,22.74
2018-07-08T07:02:51.816Z,22.74
2018-07-08T07:03:51.829Z,22.73
2018-07-08T07:04:51.713Z,22.73
2018-07-08T07:05:51.741Z,22.74
2018-07-08T07:06:51.670Z,22.74
2018-07-08T07:07:51.753Z,22.73
2018-07-08T07:08:51.876Z,22.73
2018-07-08T07:09:51.873Z,22.73
2018-07-08T07:10:51.646Z,22.74
2018-07-08T07:11:51.847Z,22.74
2018-07-08T07:12:51.848Z,22.73
2018-07-08T07:13:51.733Z,22.73
2018-07-08T07:14:51.797Z,22.74
2018-07-08T07:15:51.678Z,22.74
2018-07-08T07:16:51.812Z,22.74
2018-07-08T07:17:51.762Z,22.73
2018-07-08T07:18:51.931Z,22.74
2018-07-08T07:19:51.725Z,22.74
2018-07-08T07:20:51.834Z,22.75
2018-07-08T07:21:51.805Z,22.74
2018-07-08T07:22:51.874Z,22.74
2018-07-08T07:23:51.927Z,22.74
2018-07-08T07:24:51.668Z,22.74
2018-07-08T07:25:51.720Z,22.74
2018-07-08T07:26:51.731Z,22.73
2018-07-08T07:27:51.754Z,22.74
2018-07-08T07:28:51.784Z,22.74
2018-07-08T07:29:51.718Z,22.74
2018-07-08T07:30:51.788Z,22.74
2018-07-08T07:31:51.743Z,22.73
2018-07-08T07:32:51.759Z,22.72
2018-07-08T07:33:51.619Z,22.74
2018-07-08T07:34:51.674Z,22.74
2018-07-08T07:35:51.868Z,22.74
2018-07-08T07:36:51.826Z,22.74
2018-07-08T07:37:51.850Z,22.73
2018-07-08T07:38:51.872Z,22.74
2018-07-08T07:39:51.681Z,22.74
2018-07-08T07:40:51.740Z,22.74
2018-07-08T07:41:52.039Z,22.74
2018-07-08T07:42:51.839Z,22.75
2018-07-08T07:43:51.848Z,22.74
2018-07-08T07:44:51.888Z,22.75
2018-07-08T07:45:51.750Z,22.74
2018-07-08T07:46:51.813Z,22.74
2018-07-08T07:47:51.776Z,22.75
2018-07-08T07:48:51.737Z,22.74
2018-07-08T07:49:51.833Z,22.75
2018-07-08T07:50:51.654Z,22.75
2018-07-08T07:51:51.708Z,22.74
2018-07-08T07:52:51.903Z,22.74
2018-07-08T07:53:51.964Z,22.75
2018-07-08T07:54:51.708Z,22.75
2018-07-08T07:55:51.712Z,22.74
2018-07-08T07:56:51.833Z,22.75
2018-07-08T07:57:51.845Z,22.74
2018-07-08T07:58:51.944Z,22.75
2018-07-08T07:59:51.801Z,22.75
2018-07-08T08:00:51.691Z,22.74
2018-07-08T08:01:51.893Z,22.75
2018-07-08T08:02:52.418Z,22.74
2018-07-08T08:03:51.693Z,22.74
2018-07-08T08:04:51.799Z,22.74
2018-07-08T08:05:51.921Z,22.75
2018-07-08T08:06:51.727Z,22.74
2018-07-08T08:07:51.933Z,22.75
2018-07-08T08:08:51.712Z,22.75
2018-07-08T08:09:51.742Z,22.75
2018-07-08T08:10:51.724Z,22.74
2018-07-08T08:11:51.779Z,22.75
2018-07-08T08:12:51.876Z,22.75
2018-07-08T08:13:51.849Z,22.75
2018-07-08T08:14:51.819Z,22.75
2018-07-08T08:15:51.760Z,22.75
2018-07-08T08:16:51.916Z,22.75
2018-07-08T08:17:51.850Z,22.74
2018-07-08T08:18:51.820Z,22.73
2018-07-08T08:19:51.905Z,22.74
2018-07-08T08:20:51.736Z,22.75
2018-07-08T08:21:51.742Z,22.76
2018-07-08T08:22:51.768Z,22.78
2018-07-08T08:23:51.818Z,22.8
2018-07-08T08:24:51.820Z,22.8
2018-07-08T08:25:51.862Z,22.82
2018-07-08T08:26:51.826Z,22.82
2018-07-08T08:27:51.654Z,22.82
2018-07-08T08:28:51.954Z,22.83
2018-07-08T08:29:51.619Z,22.83
2018-07-08T08:30:51.586Z,22.85
2018-07-08T08:31:51.742Z,22.86
2018-07-08T08:32:51.787Z,22.86
2018-07-08T08:33:51.811Z,22.86
2018-07-08T08:34:51.633Z,22.87
2018-07-08T08:35:51.630Z,22.89
2018-07-08T08:36:51.927Z,22.89
2018-07-08T08:37:52.410Z,22.89
2018-07-08T08:38:51.917Z,22.9
2018-07-08T08:39:51.799Z,22.91
2018-07-08T08:40:51.770Z,22.91
2018-07-08T08:41:51.804Z,22.92
2018-07-08T08:42:51.808Z,22.92
2018-07-08T08:43:51.741Z,22.93
2018-07-08T08:44:51.623Z,22.93
2018-07-08T08:45:51.658Z,22.94
2018-07-08T08:46:52.521Z,22.94
2018-07-08T08:47:51.715Z,22.95
2018-07-08T08:48:51.855Z,22.94
2018-07-08T08:49:51.968Z,22.95
2018-07-08T08:50:51.938Z,22.97
2018-07-08T08:51:51.754Z,22.97
2018-07-08T08:52:51.770Z,22.96
2018-07-08T08:53:51.801Z,22.98
2018-07-08T08:54:51.706Z,22.98
2018-07-08T08:55:51.861Z,22.97
2018-07-08T08:56:51.778Z,22.99
2018-07-08T08:57:51.680Z,22.99
2018-07-08T08:58:51.797Z,22.99
2018-07-08T08:59:51.899Z,23
2018-07-08T09:00:51.691Z,23.01
2018-07-08T09:01:51.969Z,23.02
2018-07-08T09:02:52.092Z,23.01
2018-07-08T09:03:51.667Z,23.03
2018-07-08T09:04:51.733Z,23.03
2018-07-08T09:05:51.698Z,23.04
2018-07-08T09:06:51.827Z,23.04
2018-07-08T09:07:51.801Z,23.03
2018-07-08T09:08:51.799Z,23.04
2018-07-08T09:09:51.772Z,23.04
2018-07-08T09:10:51.868Z,23.04
2018-07-08T09:11:51.733Z,23.04
2018-07-08T09:12:51.692Z,23.04
2018-07-08T09:13:51.795Z,23.05
2018-07-08T09:14:51.729Z,23.04
2018-07-08T09:15:51.796Z,23.04
2018-07-08T09:16:51.961Z,23.03
2018-07-08T09:17:51.828Z,23.02
2018-07-08T09:18:51.809Z,23.04
2018-07-08T09:19:51.845Z,23.04
2018-07-08T09:20:51.800Z,23.03
2018-07-08T09:21:51.683Z,23.02
2018-07-08T09:22:51.799Z,23.03
2018-07-08T09:23:51.858Z,23.02
2018-07-08T09:24:51.755Z,23.02
2018-07-08T09:25:51.683Z,23.02
2018-07-08T09:26:51.808Z,23.03
2018-07-08T09:27:51.713Z,23.03
2018-07-08T09:28:51.725Z,23.03
2018-07-08T09:29:51.796Z,23.04
2018-07-08T09:30:51.636Z,23.04
2018-07-08T09:31:51.693Z,23.05
2018-07-08T09:32:51.623Z,23.05
2018-07-08T09:33:51.816Z,23.05
2018-07-08T09:34:51.716Z,23.07
2018-07-08T09:35:51.812Z,23.07
2018-07-08T09:36:51.697Z,23.07
2018-07-08T09:37:52.049Z,23.07
2018-07-08T09:38:51.973Z,23.09
2018-07-08T09:39:51.880Z,23.08
2018-07-08T09:40:51.745Z,23.09
2018-07-08T09:41:51.602Z,23.09
2018-07-08T09:42:51.656Z,23.1
2018-07-08T09:43:51.935Z,23.1
2018-07-08T09:44:52.453Z,23.11
2018-07-08T09:45:51.914Z,23.1
2018-07-08T09:46:51.715Z,23.12
2018-07-08T09:47:51.647Z,23.11
2018-07-08T09:48:51.737Z,23.12
2018-07-08T09:49:51.727Z,23.13
2018-07-08T09:50:51.557Z,23.11
2018-07-08T09:51:51.888Z,23.11
2018-07-08T09:52:51.893Z,23.12
2018-07-08T09:53:51.617Z,23.12
2018-07-08T09:54:51.705Z,23.12
2018-07-08T09:55:51.881Z,23.12
2018-07-08T09:56:51.825Z,23.13
2018-07-08T09:57:51.651Z,23.13
2018-07-08T09:58:52.458Z,23.14
2018-07-08T09:59:51.746Z,23.14
2018-07-08T10:00:51.885Z,23.14
2018-07-08T10:01:51.952Z,23.13
2018-07-08T10:02:51.827Z,23.15
2018-07-08T10:03:51.664Z,23.15
2018-07-08T10:04:51.877Z,23.16
2018-07-08T10:05:51.795Z,23.17
2018-07-08T10:06:51.809Z,23.19
2018-07-08T10:07:51.763Z,23.2
2018-07-08T10:08:51.629Z,23.19
2018-07-08T10:09:51.783Z,23.2
2018-07-08T10:10:51.946Z,23.22
2018-07-08T10:11:51.993Z,23.24
2018-07-08T10:12:51.820Z,23.21
2018-07-08T10:13:51.971Z,23.24
2018-07-08T10:14:52.028Z,23.24
2018-07-08T10:15:51.700Z,23.24
2018-07-08T10:16:51.973Z,23.24
2018-07-08T10:17:51.782Z,23.25
2018-07-08T10:18:51.893Z,23.26
2018-07-08T10:19:51.877Z,23.26
2018-07-08T10:20:51.996Z,23.25
2018-07-08T10:21:51.664Z,23.27
2018-07-08T10:22:51.787Z,23.28
2018-07-08T10:23:51.851Z,23.29
2018-07-08T10:24:51.921Z,23.3
2018-07-08T10:25:51.832Z,23.3
2018-07-08T10:26:51.831Z,23.31
2018-07-08T10:27:51.692Z,23.33
2018-07-08T10:28:51.798Z,23.34
2018-07-08T10:29:51.835Z,23.34
2018-07-08T10:30:51.707Z,23.34
2018-07-08T10:31:51.801Z,23.35
2018-07-08T10:32:51.760Z,23.36
2018-07-08T10:33:51.767Z,23.35
2018-07-08T10:34:51.772Z,23.36
2018-07-08T10:35:51.564Z,23.36
2018-07-08T10:36:51.831Z,23.35
2018-07-08T10:37:52.058Z,23.39
2018-07-08T10:38:51.846Z,23.39
2018-07-08T10:39:51.658Z,23.39
2018-07-08T10:40:52.563Z,23.39
2018-07-08T10:41:51.931Z,23.39
2018-07-08T10:42:51.801Z,23.4
2018-07-08T10:43:51.758Z,23.4
2018-07-08T10:44:51.527Z,23.41
2018-07-08T10:45:51.726Z,23.39
2018-07-08T10:46:51.925Z,23.37
2018-07-08T10:47:51.818Z,23.38
2018-07-08T10:48:51.674Z,23.4
2018-07-08T10:49:51.699Z,23.38
2018-07-08T10:50:51.652Z,23.39
2018-07-08T10:51:51.649Z,23.37
2018-07-08T10:52:51.843Z,23.37
2018-07-08T10:53:51.595Z,23.38
2018-07-08T10:54:51.747Z,23.37
2018-07-08T10:55:51.816Z,23.37
2018-07-08T10:56:51.814Z,23.39
2018-07-08T10:57:51.696Z,23.38
2018-07-08T10:58:51.715Z,23.38
2018-07-08T10:59:51.656Z,23.39
2018-07-08T11:00:51.738Z,23.39
2018-07-08T11:01:51.936Z,23.38
2018-07-08T11:02:51.653Z,23.36
2018-07-08T11:03:51.709Z,23.36
2018-07-08T11:04:51.713Z,23.36
2018-07-08T11:05:51.731Z,23.35
2018-07-08T11:06:51.778Z,23.35
2018-07-08T11:07:51.781Z,23.34
2018-07-08T11:08:51.796Z,23.34
2018-07-08T11:09:51.692Z,23.33
2018-07-08T11:10:51.868Z,23.33
2018-07-08T11:12:22.865Z,23.32
2018-07-08T11:12:51.744Z,23.32
2018-07-08T11:13:51.741Z,23.31
2018-07-08T11:14:51.681Z,23.3
2018-07-08T11:15:51.721Z,23.28
2018-07-08T11:16:51.787Z,23.29
2018-07-08T11:17:51.572Z,23.29
2018-07-08T11:18:51.663Z,23.28
2018-07-08T11:19:51.802Z,23.26
2018-07-08T11:20:51.645Z,23.27
2018-07-08T11:21:51.751Z,23.27
2018-07-08T11:22:51.863Z,23.25
2018-07-08T11:23:51.704Z,23.25
2018-07-08T11:24:51.776Z,23.25
2018-07-08T11:25:51.686Z,23.24
2018-07-08T11:26:51.694Z,23.24
2018-07-08T11:27:51.904Z,23.24
2018-07-08T11:28:51.718Z,23.23
2018-07-08T11:29:51.779Z,23.23
2018-07-08T11:30:51.776Z,23.23
2018-07-08T11:31:51.767Z,23.24
2018-07-08T11:32:51.811Z,23.24
2018-07-08T11:33:51.788Z,23.23
2018-07-08T11:34:51.763Z,23.23
2018-07-08T11:35:51.665Z,23.22
2018-07-08T11:36:51.952Z,23.22
2018-07-08T11:37:51.733Z,23.22
2018-07-08T11:38:51.971Z,23.22
2018-07-08T11:39:51.615Z,23.22
2018-07-08T11:40:51.830Z,23.21
2018-07-08T11:41:51.872Z,23.21
2018-07-08T11:42:51.851Z,23.2
2018-07-08T11:43:51.742Z,23.2
2018-07-08T11:44:51.671Z,23.2
2018-07-08T11:45:51.724Z,23.2
2018-07-08T11:46:51.938Z,23.18
2018-07-08T11:48:03.221Z,23.2
2018-07-08T11:48:51.750Z,23.19
2018-07-08T11:49:51.904Z,23.18
2018-07-08T11:50:51.772Z,23.18
2018-07-08T11:51:51.742Z,23.17
2018-07-08T11:52:51.734Z,23.17
2018-07-08T11:53:51.742Z,23.16
2018-07-08T11:54:51.682Z,23.16
2018-07-08T11:55:51.785Z,23.17
2018-07-08T11:56:51.633Z,23.17
2018-07-08T11:57:51.743Z,23.16
2018-07-08T11:58:51.897Z,23.16
2018-07-08T11:59:51.662Z,23.16
2018-07-08T12:00:51.613Z,23.16
2018-07-08T12:01:51.951Z,23.14
2018-07-08T12:02:51.645Z,23.14
2018-07-08T12:03:51.906Z,23.14
2018-07-08T12:04:51.648Z,23.15
2018-07-08T12:05:51.529Z,23.14
2018-07-08T12:06:51.700Z,23.14
2018-07-08T12:07:51.739Z,23.14
2018-07-08T12:08:51.705Z,23.14
2018-07-08T12:09:51.738Z,23.13
2018-07-08T12:10:51.692Z,23.13
2018-07-08T12:11:51.728Z,23.13
2018-07-08T12:12:51.612Z,23.12
2018-07-08T12:13:51.944Z,23.12
2018-07-08T12:14:51.808Z,23.12
2018-07-08T12:15:51.783Z,23.12
2018-07-08T12:16:51.733Z,23.11
2018-07-08T12:17:51.611Z,23.12
2018-07-08T12:18:51.772Z,23.11
2018-07-08T12:19:52.571Z,23.11
2018-07-08T12:20:51.793Z,23.11
2018-07-08T12:21:51.774Z,23.1
2018-07-08T12:22:51.749Z,23.11
2018-07-08T12:23:51.630Z,23.1
2018-07-08T12:24:51.660Z,23.1
2018-07-08T12:25:51.734Z,23.1
2018-07-08T12:26:51.731Z,23.09
2018-07-08T12:27:51.786Z,23.1
2018-07-08T12:28:51.849Z,23.09
2018-07-08T12:29:51.833Z,23.09
2018-07-08T12:30:51.752Z,23.09
2018-07-08T12:31:51.567Z,23.08
2018-07-08T12:32:51.668Z,23.09
2018-07-08T12:33:51.579Z,23.07
2018-07-08T12:34:51.722Z,23.08
2018-07-08T12:35:51.537Z,23.08
2018-07-08T12:36:51.651Z,23.08
2018-07-08T12:37:51.932Z,23.08
2018-07-08T12:38:51.687Z,23.08
2018-07-08T12:39:51.628Z,23.08
2018-07-08T12:40:51.682Z,23.07
2018-07-08T12:42:23.785Z,23.08
2018-07-08T12:42:51.771Z,23.08
2018-07-08T12:43:51.910Z,23.08
2018-07-08T12:44:51.797Z,23.09
2018-07-08T12:45:51.822Z,23.09
2018-07-08T12:46:51.684Z,23.09
2018-07-08T12:47:51.692Z,23.12
2018-07-08T12:48:51.685Z,23.13
2018-07-08T12:49:51.758Z,23.13
2018-07-08T12:50:51.613Z,23.14
2018-07-08T12:51:51.818Z,23.15
2018-07-08T12:52:51.981Z,23.16
2018-07-08T12:53:51.761Z,23.17
2018-07-08T12:54:51.748Z,23.17